sensor_id;sensor_type;location;lat;lon;timestamp;pressure;altitude;pressure_sealevel;temperature;humidity
52441;BME280;39611;46.062;8.950;2022-12-07T00:01:55;96245.78;;;2.15;96.88
52441;BME280;39611;46.062;8.950;2022-12-07T00:04:51;96247.31;;;1.81;98.29
52441;BME280;39611;46.062;8.950;2022-12-07T00:08:25;96234.47;;;1.67;99.72
52441;BME280;39611;46.062;8.950;2022-12-07T00:11:31;96239.63;;;1.56;99.98
52441;BME280;39611;46.062;8.950;2022-12-07T00:21:32;96231.00;;;1.85;98.29
52441;BME280;39611;46.062;8.950;2022-12-07T00:41:22;96209.22;;;1.49;99.49
52441;BME280;39611;46.062;8.950;2022-12-07T00:45:18;96197.41;;;1.35;100.00
52441;BME280;39611;46.062;8.950;2022-12-07T00:55:35;96203.97;;;1.68;99.47
52441;BME280;39611;46.062;8.950;2022-12-07T00:58:58;96194.34;;;1.80;99.16
52441;BME280;39611;46.062;8.950;2022-12-07T01:02:26;96185.25;;;1.71;99.83
52441;BME280;39611;46.062;8.950;2022-12-07T01:09:04;96191.41;;;1.77;98.60
52441;BME280;39611;46.062;8.950;2022-12-07T01:12:14;96195.56;;;1.66;99.53
52441;BME280;39611;46.062;8.950;2022-12-07T01:15:41;96198.03;;;1.61;99.60
52441;BME280;39611;46.062;8.950;2022-12-07T01:19:03;96189.66;;;1.59;99.62
52441;BME280;39611;46.062;8.950;2022-12-07T01:26:11;96196.59;;;1.65;98.61
52441;BME280;39611;46.062;8.950;2022-12-07T01:29:26;96190.59;;;1.76;98.20
52441;BME280;39611;46.062;8.950;2022-12-07T01:40:07;96189.97;;;1.50;98.31
52441;BME280;39611;46.062;8.950;2022-12-07T01:47:37;96193.00;;;1.78;98.08
52441;BME280;39611;46.062;8.950;2022-12-07T01:51:21;96182.66;;;1.71;98.97
52441;BME280;39611;46.062;8.950;2022-12-07T01:54:59;96190.97;;;1.49;99.68
52441;BME280;39611;46.062;8.950;2022-12-07T01:58:06;96191.97;;;1.37;99.59
52441;BME280;39611;46.062;8.950;2022-12-07T02:01:29;96182.78;;;1.34;99.47
52441;BME280;39611;46.062;8.950;2022-12-07T02:04:34;96187.06;;;1.59;98.54
52441;BME280;39611;46.062;8.950;2022-12-07T02:07:52;96184.53;;;1.52;98.94
52441;BME280;39611;46.062;8.950;2022-12-07T02:42:22;96152.13;;;1.18;99.97
52441;BME280;39611;46.062;8.950;2022-12-07T02:45:46;96153.66;;;1.37;98.06
52441;BME280;39611;46.062;8.950;2022-12-07T02:48:45;96149.72;;;1.46;98.03
52441;BME280;39611;46.062;8.950;2022-12-07T02:52:08;96151.34;;;1.17;99.38
52441;BME280;39611;46.062;8.950;2022-12-07T02:54:55;96151.69;;;1.21;99.42
52441;BME280;39611;46.062;8.950;2022-12-07T03:18:38;96151.34;;;1.17;99.97
52441;BME280;39611;46.062;8.950;2022-12-07T03:21:39;96145.50;;;1.03;100.00
52441;BME280;39611;46.062;8.950;2022-12-07T03:24:54;96138.25;;;1.36;98.57
52441;BME280;39611;46.062;8.950;2022-12-07T03:28:00;96139.38;;;1.28;99.66
52441;BME280;39611;46.062;8.950;2022-12-07T03:41:16;96122.56;;;1.66;95.25
52441;BME280;39611;46.062;8.950;2022-12-07T03:44:20;96127.19;;;1.52;96.96
52441;BME280;39611;46.062;8.950;2022-12-07T03:51:46;96124.72;;;1.27;97.24
52441;BME280;39611;46.062;8.950;2022-12-07T03:56:03;96124.44;;;1.47;97.01
52441;BME280;39611;46.062;8.950;2022-12-07T04:06:29;96108.41;;;1.20;99.63
52441;BME280;39611;46.062;8.950;2022-12-07T04:09:43;96103.41;;;1.06;100.00
52441;BME280;39611;46.062;8.950;2022-12-07T04:12:49;96102.19;;;1.21;99.78
52441;BME280;39611;46.062;8.950;2022-12-07T04:19:18;96090.66;;;0.98;99.12
52441;BME280;39611;46.062;8.950;2022-12-07T04:31:26;96092.66;;;1.26;98.52
52441;BME280;39611;46.062;8.950;2022-12-07T04:34:21;96087.47;;;1.26;98.60
52441;BME280;39611;46.062;8.950;2022-12-07T04:37:57;96078.59;;;1.04;99.22
52441;BME280;39611;46.062;8.950;2022-12-07T04:40:46;96075.53;;;1.07;98.60
52441;BME280;39611;46.062;8.950;2022-12-07T04:47:44;96086.81;;;1.31;96.39
52441;BME280;39611;46.062;8.950;2022-12-07T04:51:02;96093.84;;;1.00;98.51
52441;BME280;39611;46.062;8.950;2022-12-07T05:01:21;96084.41;;;1.29;97.00
52441;BME280;39611;46.062;8.950;2022-12-07T05:05:04;96091.03;;;1.02;98.86
52441;BME280;39611;46.062;8.950;2022-12-07T05:08:20;96095.13;;;1.09;99.01
52441;BME280;39611;46.062;8.950;2022-12-07T05:11:52;96089.41;;;1.31;98.08
52441;BME280;39611;46.062;8.950;2022-12-07T05:15:29;96084.00;;;1.44;95.17
52441;BME280;39611;46.062;8.950;2022-12-07T05:18:28;96079.97;;;1.18;97.38
52441;BME280;39611;46.062;8.950;2022-12-07T05:22:16;96084.13;;;1.07;98.19
52441;BME280;39611;46.062;8.950;2022-12-07T05:25:35;96086.34;;;0.92;98.60
52441;BME280;39611;46.062;8.950;2022-12-07T05:32:13;96084.91;;;0.78;100.00
52441;BME280;39611;46.062;8.950;2022-12-07T05:36:04;96082.81;;;0.86;99.30
52441;BME280;39611;46.062;8.950;2022-12-07T05:39:35;96094.09;;;0.99;99.19
52441;BME280;39611;46.062;8.950;2022-12-07T05:56:53;96097.94;;;0.78;100.00
52441;BME280;39611;46.062;8.950;2022-12-07T05:59:42;96104.97;;;1.07;98.70
52441;BME280;39611;46.062;8.950;2022-12-07T06:02:16;96109.66;;;0.87;99.22
52441;BME280;39611;46.062;8.950;2022-12-07T06:04:57;96103.13;;;0.78;98.92
52441;BME280;39611;46.062;8.950;2022-12-07T06:07:24;96103.81;;;0.73;99.91
52441;BME280;39611;46.062;8.950;2022-12-07T06:13:45;96109.94;;;0.79;99.71
52441;BME280;39611;46.062;8.950;2022-12-07T06:16:51;96104.53;;;1.11;99.10
52441;BME280;39611;46.062;8.950;2022-12-07T06:20:06;96102.69;;;0.99;98.50
52441;BME280;39611;46.062;8.950;2022-12-07T06:25:47;96107.19;;;0.92;99.08
52441;BME280;39611;46.062;8.950;2022-12-07T06:28:36;96122.16;;;0.97;98.54
52441;BME280;39611;46.062;8.950;2022-12-07T06:42:42;96109.22;;;0.72;98.84
52441;BME280;39611;46.062;8.950;2022-12-07T06:49:45;96119.00;;;0.76;99.75
52441;BME280;39611;46.062;8.950;2022-12-07T06:59:49;96102.56;;;1.06;97.41
52441;BME280;39611;46.062;8.950;2022-12-07T07:10:33;96110.25;;;0.71;100.00
52441;BME280;39611;46.062;8.950;2022-12-07T07:18:23;96113.78;;;0.76;100.00
52441;BME280;39611;46.062;8.950;2022-12-07T07:20:51;96124.50;;;0.68;100.00
52441;BME280;39611;46.062;8.950;2022-12-07T07:23:21;96126.78;;;0.95;98.63
52441;BME280;39611;46.062;8.950;2022-12-07T07:25:47;96126.25;;;1.04;97.78
52441;BME280;39611;46.062;8.950;2022-12-07T07:28:23;96117.88;;;1.02;97.62
52441;BME280;39611;46.062;8.950;2022-12-07T07:30:49;96124.13;;;1.13;97.38
52441;BME280;39611;46.062;8.950;2022-12-07T07:33:16;96118.25;;;1.18;96.82
52441;BME280;39611;46.062;8.950;2022-12-07T07:35:43;96114.94;;;1.11;97.58
52441;BME280;39611;46.062;8.950;2022-12-07T07:38:09;96136.81;;;1.09;98.72
52441;BME280;39611;46.062;8.950;2022-12-07T07:40:36;96128.47;;;0.89;100.00
52441;BME280;39611;46.062;8.950;2022-12-07T07:43:04;96133.38;;;0.79;100.00
52441;BME280;39611;46.062;8.950;2022-12-07T07:45:30;96126.81;;;0.76;100.00
52441;BME280;39611;46.062;8.950;2022-12-07T07:47:57;96135.16;;;0.97;100.00
52441;BME280;39611;46.062;8.950;2022-12-07T07:50:23;96121.75;;;1.12;98.27
52441;BME280;39611;46.062;8.950;2022-12-07T07:52:51;96128.75;;;1.11;98.04
52441;BME280;39611;46.062;8.950;2022-12-07T07:55:18;96125.19;;;1.24;98.01
52441;BME280;39611;46.062;8.950;2022-12-07T07:57:45;96131.91;;;1.01;99.15
52441;BME280;39611;46.062;8.950;2022-12-07T08:00:19;96127.69;;;1.00;99.82
52441;BME280;39611;46.062;8.950;2022-12-07T08:02:46;96129.84;;;1.03;100.00
52441;BME280;39611;46.062;8.950;2022-12-07T08:05:13;96122.09;;;1.15;99.08
52441;BME280;39611;46.062;8.950;2022-12-07T08:07:40;96129.25;;;1.20;99.47
52441;BME280;39611;46.062;8.950;2022-12-07T08:10:09;96132.72;;;1.14;98.95
52441;BME280;39611;46.062;8.950;2022-12-07T08:12:38;96140.72;;;1.30;97.52
52441;BME280;39611;46.062;8.950;2022-12-07T08:15:26;96137.41;;;1.12;99.48
52441;BME280;39611;46.062;8.950;2022-12-07T08:17:58;96135.91;;;1.16;99.26
52441;BME280;39611;46.062;8.950;2022-12-07T08:20:25;96136.06;;;1.21;99.41
52441;BME280;39611;46.062;8.950;2022-12-07T08:22:52;96146.47;;;1.51;98.54
52441;BME280;39611;46.062;8.950;2022-12-07T08:25:19;96127.44;;;1.62;96.90
52441;BME280;39611;46.062;8.950;2022-12-07T08:27:46;96138.84;;;1.49;96.94
52441;BME280;39611;46.062;8.950;2022-12-07T08:30:13;96133.19;;;1.52;95.76
52441;BME280;39611;46.062;8.950;2022-12-07T08:32:40;96128.34;;;1.56;95.51
52441;BME280;39611;46.062;8.950;2022-12-07T08:35:07;96137.06;;;1.73;95.90
52441;BME280;39611;46.062;8.950;2022-12-07T08:37:35;96142.28;;;1.62;98.20
52441;BME280;39611;46.062;8.950;2022-12-07T08:40:02;96148.38;;;1.56;98.70
52441;BME280;39611;46.062;8.950;2022-12-07T08:42:30;96145.03;;;1.67;97.72
52441;BME280;39611;46.062;8.950;2022-12-07T08:45:09;96147.09;;;1.77;96.95
52441;BME280;39611;46.062;8.950;2022-12-07T08:47:40;96152.19;;;1.83;96.59
52441;BME280;39611;46.062;8.950;2022-12-07T08:50:09;96145.97;;;1.84;96.30
52441;BME280;39611;46.062;8.950;2022-12-07T08:52:37;96150.13;;;1.73;95.74
52441;BME280;39611;46.062;8.950;2022-12-07T08:55:04;96152.75;;;1.85;96.31
52441;BME280;39611;46.062;8.950;2022-12-07T08:57:33;96163.31;;;2.02;94.81
52441;BME280;39611;46.062;8.950;2022-12-07T09:00:00;96157.09;;;2.03;93.88
52441;BME280;39611;46.062;8.950;2022-12-07T09:02:28;96156.06;;;2.16;93.64
52441;BME280;39611;46.062;8.950;2022-12-07T09:04:54;96158.56;;;2.11;93.82
52441;BME280;39611;46.062;8.950;2022-12-07T09:07:21;96166.25;;;2.17;94.27
52441;BME280;39611;46.062;8.950;2022-12-07T09:09:47;96157.28;;;2.25;94.81
52441;BME280;39611;46.062;8.950;2022-12-07T09:12:14;96156.28;;;2.26;95.25
52441;BME280;39611;46.062;8.950;2022-12-07T09:14:40;96145.97;;;2.31;94.49
52441;BME280;39611;46.062;8.950;2022-12-07T09:17:09;96146.31;;;2.23;94.66
52441;BME280;39611;46.062;8.950;2022-12-07T09:19:36;96143.09;;;2.45;91.78
52441;BME280;39611;46.062;8.950;2022-12-07T09:22:03;96145.72;;;2.45;92.45
52441;BME280;39611;46.062;8.950;2022-12-07T09:24:31;96143.56;;;2.42;92.41
52441;BME280;39611;46.062;8.950;2022-12-07T09:26:58;96139.94;;;2.31;93.13
52441;BME280;39611;46.062;8.950;2022-12-07T09:29:25;96141.19;;;2.52;91.70
52441;BME280;39611;46.062;8.950;2022-12-07T09:31:52;96139.78;;;2.61;89.43
52441;BME280;39611;46.062;8.950;2022-12-07T09:34:19;96157.50;;;2.71;88.46
52441;BME280;39611;46.062;8.950;2022-12-07T09:36:46;96151.47;;;2.70;88.31
52441;BME280;39611;46.062;8.950;2022-12-07T09:39:13;96141.16;;;2.63;90.68
52441;BME280;39611;46.062;8.950;2022-12-07T09:41:41;96146.16;;;2.65;88.60
52441;BME280;39611;46.062;8.950;2022-12-07T09:44:14;96139.63;;;2.79;88.22
52441;BME280;39611;46.062;8.950;2022-12-07T09:46:43;96141.56;;;2.84;87.99
52441;BME280;39611;46.062;8.950;2022-12-07T09:49:16;96146.09;;;2.89;89.28
52441;BME280;39611;46.062;8.950;2022-12-07T09:51:44;96143.19;;;3.02;86.64
52441;BME280;39611;46.062;8.950;2022-12-07T09:54:16;96141.53;;;2.96;87.43
52441;BME280;39611;46.062;8.950;2022-12-07T09:56:43;96141.69;;;3.06;87.24
52441;BME280;39611;46.062;8.950;2022-12-07T09:59:16;96145.53;;;3.15;87.51
52441;BME280;39611;46.062;8.950;2022-12-07T10:01:46;96143.41;;;3.12;89.27
52441;BME280;39611;46.062;8.950;2022-12-07T10:04:25;96142.34;;;3.13;88.29
52441;BME280;39611;46.062;8.950;2022-12-07T10:06:53;96132.25;;;3.17;87.26
52441;BME280;39611;46.062;8.950;2022-12-07T10:09:23;96129.00;;;3.26;84.84
52441;BME280;39611;46.062;8.950;2022-12-07T10:12:05;96125.09;;;3.41;84.33
52441;BME280;39611;46.062;8.950;2022-12-07T10:14:40;96121.69;;;3.40;83.23
52441;BME280;39611;46.062;8.950;2022-12-07T10:17:39;96115.81;;;3.50;81.74
52441;BME280;39611;46.062;8.950;2022-12-07T10:20:14;96115.97;;;3.60;81.68
52441;BME280;39611;46.062;8.950;2022-12-07T10:25:30;96105.22;;;3.74;82.92
52441;BME280;39611;46.062;8.950;2022-12-07T10:28:09;96104.41;;;3.73;84.25
52441;BME280;39611;46.062;8.950;2022-12-07T10:30:54;96101.97;;;3.66;82.23
52441;BME280;39611;46.062;8.950;2022-12-07T10:33:33;96094.28;;;3.77;80.06
52441;BME280;39611;46.062;8.950;2022-12-07T10:36:16;96089.19;;;3.70;82.69
52441;BME280;39611;46.062;8.950;2022-12-07T10:38:46;96091.19;;;3.80;79.83
52441;BME280;39611;46.062;8.950;2022-12-07T10:41:16;96082.22;;;3.76;79.27
52441;BME280;39611;46.062;8.950;2022-12-07T10:43:51;96085.78;;;3.86;79.28
52441;BME280;39611;46.062;8.950;2022-12-07T10:47:44;96082.59;;;4.01;78.29
52441;BME280;39611;46.062;8.950;2022-12-07T10:53:01;96076.41;;;4.07;80.76
52441;BME280;39611;46.062;8.950;2022-12-07T10:55:53;96067.28;;;4.10;80.85
52441;BME280;39611;46.062;8.950;2022-12-07T11:01:49;96069.13;;;4.31;81.84
52441;BME280;39611;46.062;8.950;2022-12-07T11:15:17;96059.50;;;4.37;82.74
52441;BME280;39611;46.062;8.950;2022-12-07T11:55:59;96016.28;;;4.84;80.42
52441;BME280;39611;46.062;8.950;2022-12-07T11:58:35;96021.81;;;4.87;79.71
52441;BME280;39611;46.062;8.950;2022-12-07T12:03:47;96014.03;;;4.97;78.69
52441;BME280;39611;46.062;8.950;2022-12-07T12:06:19;96022.44;;;4.99;77.48
52441;BME280;39611;46.062;8.950;2022-12-07T12:08:56;96024.03;;;5.00;77.17
52441;BME280;39611;46.062;8.950;2022-12-07T12:15:18;96013.41;;;5.12;79.09
52441;BME280;39611;46.062;8.950;2022-12-07T12:20:56;96004.75;;;5.12;77.62
52441;BME280;39611;46.062;8.950;2022-12-07T12:23:45;96008.97;;;5.18;78.24
52441;BME280;39611;46.062;8.950;2022-12-07T12:26:35;96012.09;;;5.15;78.20
52441;BME280;39611;46.062;8.950;2022-12-07T12:29:33;96010.84;;;5.22;78.24
52441;BME280;39611;46.062;8.950;2022-12-07T12:32:13;96008.47;;;5.21;78.71
52441;BME280;39611;46.062;8.950;2022-12-07T12:35:00;96015.81;;;5.19;76.68
52441;BME280;39611;46.062;8.950;2022-12-07T12:42:51;96003.28;;;5.26;75.89
52441;BME280;39611;46.062;8.950;2022-12-07T12:45:24;95999.09;;;5.25;74.77
52441;BME280;39611;46.062;8.950;2022-12-07T12:50:37;95987.84;;;5.30;74.85
52441;BME280;39611;46.062;8.950;2022-12-07T12:59:56;95986.28;;;5.34;76.07
52441;BME280;39611;46.062;8.950;2022-12-07T13:04:56;95987.34;;;5.33;75.52
52441;BME280;39611;46.062;8.950;2022-12-07T13:19:53;95963.50;;;5.39;74.40
52441;BME280;39611;46.062;8.950;2022-12-07T13:25:17;95960.84;;;5.34;72.85
52441;BME280;39611;46.062;8.950;2022-12-07T13:28:01;95960.88;;;5.39;72.32
52441;BME280;39611;46.062;8.950;2022-12-07T13:30:29;95955.94;;;5.43;72.77
52441;BME280;39611;46.062;8.950;2022-12-07T13:33:00;95949.34;;;5.35;72.50
52441;BME280;39611;46.062;8.950;2022-12-07T13:35:34;95945.66;;;5.36;71.48
52441;BME280;39611;46.062;8.950;2022-12-07T13:38:05;95955.69;;;5.50;70.79
52441;BME280;39611;46.062;8.950;2022-12-07T13:40:32;95946.25;;;5.48;71.51
52441;BME280;39611;46.062;8.950;2022-12-07T13:43:03;95942.59;;;5.50;71.87
52441;BME280;39611;46.062;8.950;2022-12-07T13:45:33;95939.97;;;5.50;70.77
52441;BME280;39611;46.062;8.950;2022-12-07T13:48:23;95926.78;;;5.39;71.89
52441;BME280;39611;46.062;8.950;2022-12-07T13:50:56;95935.53;;;5.50;73.98
52441;BME280;39611;46.062;8.950;2022-12-07T13:53:23;95934.97;;;5.43;73.33
52441;BME280;39611;46.062;8.950;2022-12-07T13:55:50;95936.78;;;5.42;73.49
52441;BME280;39611;46.062;8.950;2022-12-07T13:58:20;95925.22;;;5.38;73.24
52441;BME280;39611;46.062;8.950;2022-12-07T14:00:47;95935.22;;;5.46;72.63
52441;BME280;39611;46.062;8.950;2022-12-07T14:05:43;95934.69;;;5.44;73.61
52441;BME280;39611;46.062;8.950;2022-12-07T14:10:52;95933.63;;;5.40;73.71
52441;BME280;39611;46.062;8.950;2022-12-07T14:13:28;95942.81;;;5.43;73.21
52441;BME280;39611;46.062;8.950;2022-12-07T14:15:57;95942.81;;;5.43;73.16
52441;BME280;39611;46.062;8.950;2022-12-07T14:18:50;95940.75;;;5.45;74.17
52441;BME280;39611;46.062;8.950;2022-12-07T14:21:20;95942.03;;;5.42;74.87
52441;BME280;39611;46.062;8.950;2022-12-07T14:24:21;95943.06;;;5.41;74.04
52441;BME280;39611;46.062;8.950;2022-12-07T14:26:49;95945.19;;;5.44;74.43
52441;BME280;39611;46.062;8.950;2022-12-07T14:29:21;95946.47;;;5.42;74.55
52441;BME280;39611;46.062;8.950;2022-12-07T14:31:48;95947.78;;;5.39;75.28
52441;BME280;39611;46.062;8.950;2022-12-07T14:34:14;95950.91;;;5.36;74.73
52441;BME280;39611;46.062;8.950;2022-12-07T14:36:41;95948.00;;;5.33;74.98
52441;BME280;39611;46.062;8.950;2022-12-07T14:39:07;95953.28;;;5.38;74.24
52441;BME280;39611;46.062;8.950;2022-12-07T14:41:39;95955.13;;;5.37;75.35
52441;BME280;39611;46.062;8.950;2022-12-07T14:44:22;95949.28;;;5.30;75.70
52441;BME280;39611;46.062;8.950;2022-12-07T14:46:53;95954.81;;;5.34;75.93
52441;BME280;39611;46.062;8.950;2022-12-07T14:49:40;95952.16;;;5.29;78.02
52441;BME280;39611;46.062;8.950;2022-12-07T14:52:18;95952.06;;;5.18;77.67
52441;BME280;39611;46.062;8.950;2022-12-07T14:55:16;95956.53;;;5.18;77.00
52441;BME280;39611;46.062;8.950;2022-12-07T14:57:44;95960.41;;;5.10;77.22
52441;BME280;39611;46.062;8.950;2022-12-07T15:00:26;95955.44;;;5.09;77.80
52441;BME280;39611;46.062;8.950;2022-12-07T15:02:54;95958.44;;;4.95;79.18
52441;BME280;39611;46.062;8.950;2022-12-07T15:05:21;95961.75;;;4.80;82.15
52441;BME280;39611;46.062;8.950;2022-12-07T15:07:48;95960.59;;;4.71;80.87
52441;BME280;39611;46.062;8.950;2022-12-07T15:12:49;95967.03;;;4.58;82.74
52441;BME280;39611;46.062;8.950;2022-12-07T15:15:16;95964.63;;;4.52;82.05
52441;BME280;39611;46.062;8.950;2022-12-07T15:17:43;95964.63;;;4.52;83.64
52441;BME280;39611;46.062;8.950;2022-12-07T15:20:12;95965.41;;;4.52;85.19
52441;BME280;39611;46.062;8.950;2022-12-07T15:22:39;95964.28;;;4.48;84.34
52441;BME280;39611;46.062;8.950;2022-12-07T15:25:06;95966.38;;;4.46;85.98
52441;BME280;39611;46.062;8.950;2022-12-07T15:27:33;95972.53;;;4.35;87.03
52441;BME280;39611;46.062;8.950;2022-12-07T15:30:00;95970.47;;;4.37;87.47
52441;BME280;39611;46.062;8.950;2022-12-07T15:32:27;95976.94;;;4.29;88.88
52441;BME280;39611;46.062;8.950;2022-12-07T15:34:58;95970.41;;;4.32;89.97
52441;BME280;39611;46.062;8.950;2022-12-07T15:37:25;95978.69;;;4.24;89.27
52441;BME280;39611;46.062;8.950;2022-12-07T15:39:51;95969.09;;;4.07;88.80
52441;BME280;39611;46.062;8.950;2022-12-07T15:42:18;95976.25;;;4.17;88.69
52441;BME280;39611;46.062;8.950;2022-12-07T15:44:44;95970.47;;;4.15;88.88
52441;BME280;39611;46.062;8.950;2022-12-07T15:47:33;95982.53;;;4.16;89.99
52441;BME280;39611;46.062;8.950;2022-12-07T15:50:22;95983.19;;;4.06;91.10
52441;BME280;39611;46.062;8.950;2022-12-07T15:52:49;95979.59;;;3.90;92.75
52441;BME280;39611;46.062;8.950;2022-12-07T15:55:15;95980.50;;;3.79;92.86
52441;BME280;39611;46.062;8.950;2022-12-07T15:57:42;95984.56;;;3.70;92.78
52441;BME280;39611;46.062;8.950;2022-12-07T16:00:10;95992.59;;;3.63;93.80
52441;BME280;39611;46.062;8.950;2022-12-07T16:02:36;95990.75;;;3.64;93.58
52441;BME280;39611;46.062;8.950;2022-12-07T16:05:06;95986.28;;;3.81;92.50
52441;BME280;39611;46.062;8.950;2022-12-07T16:07:32;95984.88;;;3.74;92.93
52441;BME280;39611;46.062;8.950;2022-12-07T16:09:59;95989.50;;;3.66;93.00
52441;BME280;39611;46.062;8.950;2022-12-07T16:12:25;95992.91;;;3.67;92.67
52441;BME280;39611;46.062;8.950;2022-12-07T16:14:52;95987.03;;;3.60;93.89
52441;BME280;39611;46.062;8.950;2022-12-07T16:17:19;95994.03;;;3.54;94.74
52441;BME280;39611;46.062;8.950;2022-12-07T16:19:45;96006.53;;;3.52;95.21
52441;BME280;39611;46.062;8.950;2022-12-07T16:22:12;96007.09;;;3.37;95.55
52441;BME280;39611;46.062;8.950;2022-12-07T16:24:38;96006.06;;;3.38;95.24
52441;BME280;39611;46.062;8.950;2022-12-07T16:27:05;96010.03;;;3.41;95.84
52441;BME280;39611;46.062;8.950;2022-12-07T16:29:31;96013.22;;;3.43;95.34
52441;BME280;39611;46.062;8.950;2022-12-07T16:32:00;96009.56;;;3.44;95.49
52441;BME280;39611;46.062;8.950;2022-12-07T16:34:32;96012.47;;;3.47;93.84
52441;BME280;39611;46.062;8.950;2022-12-07T16:36:59;96013.75;;;3.45;94.43
52441;BME280;39611;46.062;8.950;2022-12-07T16:39:30;96014.88;;;3.49;93.92
52441;BME280;39611;46.062;8.950;2022-12-07T16:41:57;96005.59;;;3.24;95.27
52441;BME280;39611;46.062;8.950;2022-12-07T16:44:24;96004.09;;;3.12;96.04
52441;BME280;39611;46.062;8.950;2022-12-07T16:46:50;96007.03;;;3.15;95.98
52441;BME280;39611;46.062;8.950;2022-12-07T16:49:17;96017.06;;;3.23;96.32
52441;BME280;39611;46.062;8.950;2022-12-07T16:51:44;96018.81;;;3.18;96.19
52441;BME280;39611;46.062;8.950;2022-12-07T16:54:12;96006.16;;;3.26;95.77
52441;BME280;39611;46.062;8.950;2022-12-07T16:56:39;96011.84;;;3.23;95.33
52441;BME280;39611;46.062;8.950;2022-12-07T16:59:05;96010.97;;;3.18;95.37
52441;BME280;39611;46.062;8.950;2022-12-07T17:01:32;96015.41;;;3.17;95.84
52441;BME280;39611;46.062;8.950;2022-12-07T17:03:58;96019.59;;;3.18;96.27
52441;BME280;39611;46.062;8.950;2022-12-07T17:06:27;96012.75;;;2.83;97.14
52441;BME280;39611;46.062;8.950;2022-12-07T17:08:54;96019.63;;;2.73;97.91
52441;BME280;39611;46.062;8.950;2022-12-07T17:11:24;96019.66;;;2.90;97.96
52441;BME280;39611;46.062;8.950;2022-12-07T17:13:51;96023.41;;;2.94;97.32
52441;BME280;39611;46.062;8.950;2022-12-07T17:16:37;96017.69;;;2.97;97.02
52441;BME280;39611;46.062;8.950;2022-12-07T17:19:08;96017.38;;;2.93;96.61
52441;BME280;39611;46.062;8.950;2022-12-07T17:21:35;96019.56;;;2.84;96.25
52441;BME280;39611;46.062;8.950;2022-12-07T17:24:04;96017.91;;;2.78;97.10
52441;BME280;39611;46.062;8.950;2022-12-07T17:26:31;96020.53;;;2.95;96.59
52441;BME280;39611;46.062;8.950;2022-12-07T17:29:05;96021.59;;;2.82;96.46
52441;BME280;39611;46.062;8.950;2022-12-07T17:31:32;96012.09;;;2.76;96.12
52441;BME280;39611;46.062;8.950;2022-12-07T17:33:59;96013.69;;;2.77;96.72
52441;BME280;39611;46.062;8.950;2022-12-07T17:36:27;96010.56;;;2.92;96.72
52441;BME280;39611;46.062;8.950;2022-12-07T17:38:56;96022.78;;;2.75;96.43
52441;BME280;39611;46.062;8.950;2022-12-07T17:41:27;96032.44;;;2.74;97.18
52441;BME280;39611;46.062;8.950;2022-12-07T17:44:15;96018.66;;;2.62;97.42
52441;BME280;39611;46.062;8.950;2022-12-07T17:46:43;96017.34;;;2.76;96.75
52441;BME280;39611;46.062;8.950;2022-12-07T17:49:09;96013.06;;;2.87;95.91
52441;BME280;39611;46.062;8.950;2022-12-07T17:51:36;96014.59;;;2.83;96.63
52441;BME280;39611;46.062;8.950;2022-12-07T17:54:21;96021.59;;;2.82;95.60
52441;BME280;39611;46.062;8.950;2022-12-07T17:56:48;96018.56;;;2.86;94.95
52441;BME280;39611;46.062;8.950;2022-12-07T17:59:14;96009.28;;;2.95;93.79
52441;BME280;39611;46.062;8.950;2022-12-07T18:01:41;96015.78;;;2.92;93.98
52441;BME280;39611;46.062;8.950;2022-12-07T18:04:08;96011.25;;;2.88;95.56
52441;BME280;39611;46.062;8.950;2022-12-07T18:06:49;96013.38;;;2.74;95.16
52441;BME280;39611;46.062;8.950;2022-12-07T18:09:20;96014.06;;;2.69;95.81
52441;BME280;39611;46.062;8.950;2022-12-07T18:11:54;96018.38;;;2.75;95.44
52441;BME280;39611;46.062;8.950;2022-12-07T18:14:21;96018.91;;;2.77;95.77
52441;BME280;39611;46.062;8.950;2022-12-07T18:16:47;96028.53;;;2.60;97.31
52441;BME280;39611;46.062;8.950;2022-12-07T18:19:15;96026.09;;;2.42;97.50
52441;BME280;39611;46.062;8.950;2022-12-07T18:21:43;96025.53;;;2.39;98.29
52441;BME280;39611;46.062;8.950;2022-12-07T18:24:11;96030.19;;;2.37;98.03
52441;BME280;39611;46.062;8.950;2022-12-07T18:26:38;96032.91;;;2.31;97.82
52441;BME280;39611;46.062;8.950;2022-12-07T18:29:06;96029.31;;;2.32;97.66
52441;BME280;39611;46.062;8.950;2022-12-07T18:31:34;96042.25;;;2.27;98.61
52441;BME280;39611;46.062;8.950;2022-12-07T18:34:03;96039.06;;;2.36;97.91
52441;BME280;39611;46.062;8.950;2022-12-07T18:36:30;96044.59;;;2.40;97.93
52441;BME280;39611;46.062;8.950;2022-12-07T18:38:57;96053.47;;;2.39;97.16
52441;BME280;39611;46.062;8.950;2022-12-07T18:41:23;96045.47;;;2.46;97.41
52441;BME280;39611;46.062;8.950;2022-12-07T18:43:50;96049.22;;;2.50;96.35
52441;BME280;39611;46.062;8.950;2022-12-07T18:46:18;96050.00;;;2.62;96.10
52441;BME280;39611;46.062;8.950;2022-12-07T18:48:46;96052.84;;;2.49;96.89
52441;BME280;39611;46.062;8.950;2022-12-07T18:51:14;96056.50;;;2.48;95.73
52441;BME280;39611;46.062;8.950;2022-12-07T18:53:41;96062.19;;;2.45;96.46
52441;BME280;39611;46.062;8.950;2022-12-07T18:56:19;96053.28;;;2.57;95.41
52441;BME280;39611;46.062;8.950;2022-12-07T18:58:51;96061.34;;;2.56;95.08
52441;BME280;39611;46.062;8.950;2022-12-07T19:01:37;96060.88;;;2.59;94.74
52441;BME280;39611;46.062;8.950;2022-12-07T19:04:04;96066.81;;;2.54;95.59
52441;BME280;39611;46.062;8.950;2022-12-07T19:06:31;96055.47;;;2.49;95.48
52441;BME280;39611;46.062;8.950;2022-12-07T19:08:58;96062.50;;;2.48;96.15
52441;BME280;39611;46.062;8.950;2022-12-07T19:11:29;96064.53;;;2.46;96.17
52441;BME280;39611;46.062;8.950;2022-12-07T19:14:34;96060.28;;;2.28;96.94
52441;BME280;39611;46.062;8.950;2022-12-07T19:17:06;96060.84;;;2.30;97.43
52441;BME280;39611;46.062;8.950;2022-12-07T19:19:41;96063.69;;;2.29;97.03
52441;BME280;39611;46.062;8.950;2022-12-07T19:22:10;96053.69;;;2.26;97.35
52441;BME280;39611;46.062;8.950;2022-12-07T19:24:37;96060.56;;;2.03;98.25
52441;BME280;39611;46.062;8.950;2022-12-07T19:27:06;96057.13;;;2.14;97.69
52441;BME280;39611;46.062;8.950;2022-12-07T19:29:33;96056.44;;;2.19;97.19
52441;BME280;39611;46.062;8.950;2022-12-07T19:32:01;96056.66;;;2.17;97.99
52441;BME280;39611;46.062;8.950;2022-12-07T19:34:29;96053.84;;;2.19;97.25